Terminal Aerodrome Forecast
Issued by NWS

Home | Current Version | Previous Version | Graphics & Text | Print | Product List | Glossary On
Versions: 1 2 3 4 5 6 7 8 9 10 11 12 13 14 15 16 17 18 19 20 21 22
000
FTUS43 KGRB 240800 AAA
TAFCWA
TAF AMD
KCWA 240816Z 2408/2506 VRB03KT 2SM BR OVC004
      TEMPO 2408/2410 1/2SM -FZDZ FG OVC002
     FM241000 35004KT 4SM BR OVC005
      TEMPO 2410/2413 1SM -FZDZ BR OVC002
     FM241600 36005KT 6SM -SN BR SCT005 OVC010
     FM241900 35008KT P6SM -SN SCT008 OVC015
     FM250100 31006KT P6SM BKN015 OVC022
      AMD LTD TO CLD VIS AND WIND TIL 241200=

USA.gov is the U.S. government's official web portal to all federal, state and local government web resources and services.